Airfield :
LOGIN :

Register | Disclaimer

   EN    FR    IT 

 










Legend :    VFR   Marginal VFR   IFR   Intensive IFR   Very Intensive IFR
Visi :
Ceiling :
>= 8 km
>= 3000ft
5 to 8 km
1000 to 3000 ft
1500m to 5 km
500 to 1000 ft
800 to 1500m
200 to 500 ft
< 800m
< 200 ft
Symbols :   Thunderstorms  Fog  Heavy snow  Heavy precipitations  Wind > 20 kt
SIGMETs :     Misc.  Thunderstorms  Icing  Turbulence  Mountain Waves  Volcanic Ashes







- Airport Elevation : 935 ft


EBFS - Florennes

CURRENT METAR :
  • 260855Z 25015KT 9999 FEW018 BKN024 09/03 Q1018 WHT WHT BECMG BLU

EXPIRED METARs :
  • 260825Z 25015KT 9999 FEW016 BKN020 09/03 Q1018 WHT WHT
  • 260755Z 26015KT 9999 FEW016 BKN020 08/03 Q1018 WHT WHT
  • 260725Z 25014KT 9999 FEW014 BKN018 08/03 Q1018 WHT WHT
  • 260655Z 25012KT 9999 FEW012 BKN016 08/04 Q1018 WHT WHT
  • 260647Z 25014KT 9999 FEW012 BKN016 08/03 Q1018 WHT WHT
  • 260625Z 25014KT 9999 SCT012 BKN018 07/04 Q1018 GRN GRN BECMG WHT
  • 260555Z 25013KT 9999 SCT012 BKN018 07/04 Q1017 GRN GRN BECMG WHT

TAF TAF EBFS
Valid from the 26 at 07:00 until the 26 at 16:00 UTC


260541Z 2607/2616 25015G25KT 9999 SCT012 BKN020
BECMG 2607/2609 SCT020
PROB30
TEMPO 2610/2615 6000 -SHRA
BECMG 2611/2613 SCT030
No reported NOTAMs for that airfield.



MET'MAP, your aeronautical weather chart ! - Copyright ORBIFLY December 2007 - Disclaimer

ORBIFLY MET'MAP TEAM :

Programming & Development : Alexandra Zaïnal
Concept & Development : Baudouin d'Aumeries
Co-Development & Prog : Marc-Olivier Méhu
Technical & hardware support : Manuel Goepfert

Contact : metmap@orbifly.com




SOURCES & CREDITS :

   NOAA